Time;durP1;ratioP1;P1;durP2;ratioP2;P2;SDS_P1;SDS_P2;PMS_P1;PMS_P2;Temp;Humidity;BMP_temperature;BMP_pressure;BME280_temperature;BME280_humidity;BME280_pressure;Samples;Min_cycle;Max_cycle;Signal;HPM_P1;HPM_P2
2022/07/29 00:00:08;;;;;;;;;;;;;;;;;;5053624;28;19948;-81
2022/07/29 00:02:33;;;;;;;;;;;;;;;;;;5053653;28;19920;-80
2022/07/29 00:04:58;;;;;;;;;;;;;;;;;;5053567;28;19917;-80
2022/07/29 00:07:24;;;;;;;;;;;;;;;;;;5053759;28;19917;-81
2022/07/29 00:09:49;;;;;;;;;;;;;;;;;;5053839;28;19990;-81
2022/07/29 00:12:14;;;;;;;;;;;;;;;;;;5052284;28;19917;-81
2022/07/29 00:14:39;;;;;;;;;;;;;;;;;;5052301;28;20397;-81
2022/07/29 00:17:05;;;;;;;;;;;;;;;;;;5052242;28;19913;-81
2022/07/29 00:19:30;;;;;;;;;;;;;;;;;;5052521;28;20326;-81
2022/07/29 00:21:55;;;;;;;;;;;;;;;;;;5053822;28;19917;-81
2022/07/29 00:24:20;;;;;;;;;;;;;;;;;;5053513;28;19921;-81
2022/07/29 00:26:46;;;;;;;;;;;;;;;;;;5053283;28;19917;-81
2022/07/29 00:29:11;;;;;;;;;;;;;;;;;;5051847;28;20272;-81
2022/07/29 00:31:36;;;;;;;;;;;;;;;;;;5052450;28;19952;-81
2022/07/29 00:34:02;;;;;;;;;;;;;;;;;;5053278;28;19917;-81
2022/07/29 00:36:28;;;;;;;;;;;;;;;;;;5052000;28;20386;-81
2022/07/29 00:38:53;;;;;;;;;;;;;;;;;;5053479;28;19952;-81
2022/07/29 00:41:18;;;;;;;;;;;;;;;;;;5052343;28;19978;-81
2022/07/29 00:43:43;;;;;;;;;;;;;;;;;;5053114;28;20003;-81
2022/07/29 00:46:09;;;;;;;;;;;;;;;;;;5035355;28;20329;-82
2022/07/29 00:48:34;;;;;;;;;;;;;;;;;;5052149;28;20321;-81
2022/07/29 00:51:00;;;;;;;;;;;;;;;;;;5037578;28;19920;-82
2022/07/29 00:53:25;;;;;;;;;;;;;;;;;;5055809;28;19917;-81
2022/07/29 00:55:50;;;;;;;;;;;;;;;;;;5056921;28;20283;-82
2022/07/29 00:58:16;;;;;;;;;;;;;;;;;;5038728;28;20002;-82
2022/07/29 01:00:41;;;;;;;;;;;;;;;;;;5055667;28;19950;-82
2022/07/29 01:03:07;;;;;;;;;;;;;;;;;;5055326;28;19921;-82
2022/07/29 01:05:32;;;;;;;;;;;;;;;;;;5056451;28;19962;-81
2022/07/29 01:07:57;;;;;;;;;;;;;;;;;;5055998;28;19916;-82
2022/07/29 01:10:23;;;;;;;;;;;;;;;;;;5054954;28;19921;-82
2022/07/29 01:12:49;;;;;;;;;;;;;;;;;;5055497;28;19913;-81
2022/07/29 01:15:14;;;;;;;;;;;;;;;;;;5055644;28;19928;-81
2022/07/29 01:17:54;;;;;;;;;;;;;;;;;;5038710;28;19912;-81
2022/07/29 01:20:19;;;;;;;;;;;;;;;;;;5055379;28;19913;-81
2022/07/29 01:23:03;;;;;;;;;;;;;;;;;;5056175;28;20004;-81
2022/07/29 01:25:28;;;;;;;;;;;;;;;;;;5055041;28;19932;-81
2022/07/29 01:28:12;;;;;;;;;;;;;;;;;;5056167;28;19974;-81
2022/07/29 01:30:37;;;;;;;;;;;;;;;;;;5055956;28;19927;-81
2022/07/29 01:33:03;;;;;;;;;;;;;;;;;;5054838;28;20364;-81
2022/07/29 01:35:30;;;;;;;;;;;;;;;;;;5055306;28;19966;-82
2022/07/29 01:38:11;;;;;;;;;;;;;;;;;;5054785;28;20280;-80
2022/07/29 01:40:39;;;;;;;;;;;;;;;;;;5038273;28;19920;-81
2022/07/29 01:43:24;;;;;;;;;;;;;;;;;;5054883;28;19924;-81
2022/07/29 01:45:55;;;;;;;;;;;;;;;;;;5053864;28;19967;-81
2022/07/29 01:48:20;;;;;;;;;;;;;;;;;;5054333;28;19919;-81
2022/07/29 01:50:54;;;;;;;;;;;;;;;;;;5055933;28;19913;-81
2022/07/29 01:53:26;;;;;;;;;;;;;;;;;;5054425;28;19920;-81
2022/07/29 01:55:51;;;;;;;;;;;;;;;;;;5054661;28;19921;-81
2022/07/29 01:58:17;;;;;;;;;;;;;;;;;;5054280;28;19924;-81
2022/07/29 02:00:42;;;;;;;;;;;;;;;;;;5054136;28;19917;-81
2022/07/29 02:03:09;;;;;;;;;;;;;;;;;;5053358;28;19919;-81
2022/07/29 02:05:35;;;;;;;;;;;;;;;;;;5055372;28;20004;-82
2022/07/29 02:08:00;;;;;;;;;;;;;;;;;;5054650;28;20003;-81
2022/07/29 02:10:27;;;;;;;;;;;;;;;;;;5054395;28;19968;-81
2022/07/29 02:12:54;;;;;;;;;;;;;;;;;;5054321;28;20008;-81
2022/07/29 02:15:19;;;;;;;;;;;;;;;;;;5054353;28;19913;-81
2022/07/29 02:17:52;;;;;;;;;;;;;;;;;;5053860;28;19917;-80
2022/07/29 02:20:18;;;;;;;;;;;;;;;;;;5054643;28;19923;-80
2022/07/29 02:22:43;;;;;;;;;;;;;;;;;;5055207;28;19916;-81
2022/07/29 02:25:09;;;;;;;;;;;;;;;;;;5054095;28;20375;-81
2022/07/29 02:27:34;;;;;;;;;;;;;;;;;;5036967;28;19994;-81
2022/07/29 02:30:00;;;;;;;;;;;;;;;;;;5053984;28;19960;-81
2022/07/29 02:32:25;;;;;;;;;;;;;;;;;;5054788;28;19967;-81
2022/07/29 02:34:50;;;;;;;;;;;;;;;;;;5053634;28;19940;-81
2022/07/29 02:37:16;;;;;;;;;;;;;;;;;;5053431;28;19966;-81
2022/07/29 02:39:42;;;;;;;;;;;;;;;;;;5053786;28;19912;-81
2022/07/29 02:42:08;;;;;;;;;;;;;;;;;;5054541;28;19928;-81
2022/07/29 02:44:34;;;;;;;;;;;;;;;;;;5053404;28;19913;-80
2022/07/29 02:47:04;;;;;;;;;;;;;;;;;;5053471;28;20349;-81
2022/07/29 02:49:59;;;;;;;;;;;;;;;;;;5036554;28;20386;-81
2022/07/29 02:52:26;;;;;;;;;;;;;;;;;;5044568;28;19935;-81
2022/07/29 02:54:54;;;;;;;;;;;;;;;;;;5053342;28;19921;-82
2022/07/29 02:57:39;;;;;;;;;;;;;;;;;;5036583;28;19923;-81
2022/07/29 03:00:06;;;;;;;;;;;;;;;;;;5053748;28;19913;-82
2022/07/29 03:02:33;;;;;;;;;;;;;;;;;;5036974;28;19912;-81
2022/07/29 03:04:58;;;;;;;;;;;;;;;;;;5054604;28;20008;-81
2022/07/29 03:07:23;;;;;;;;;;;;;;;;;;5053275;28;19964;-82
2022/07/29 03:09:49;;;;;;;;;;;;;;;;;;5053218;28;19975;-82
2022/07/29 03:12:14;;;;;;;;;;;;;;;;;;5052850;28;20383;-82
2022/07/29 03:14:40;;;;;;;;;;;;;;;;;;5054189;28;19920;-82
2022/07/29 03:17:05;;;;;;;;;;;;;;;;;;5053121;28;19924;-81
2022/07/29 03:19:30;;;;;;;;;;;;;;;;;;5054311;28;19924;-82
2022/07/29 03:21:56;;;;;;;;;;;;;;;;;;5053052;28;19999;-82
2022/07/29 03:24:25;;;;;;;;;;;;;;;;;;5052904;28;19920;-82
2022/07/29 03:26:50;;;;;;;;;;;;;;;;;;5052834;28;20375;-82
2022/07/29 03:29:16;;;;;;;;;;;;;;;;;;5052696;28;19920;-81
2022/07/29 03:31:41;;;;;;;;;;;;;;;;;;5052788;28;20283;-82
2022/07/29 03:34:06;;;;;;;;;;;;;;;;;;5035851;28;20015;-81
2022/07/29 03:36:31;;;;;;;;;;;;;;;;;;5052486;28;19913;-81
2022/07/29 03:38:57;;;;;;;;;;;;;;;;;;5052944;28;20387;-81
2022/07/29 03:41:22;;;;;;;;;;;;;;;;;;5052920;28;20003;-81
2022/07/29 03:43:47;;;;;;;;;;;;;;;;;;5052540;28;19921;-81
2022/07/29 03:46:12;;;;;;;;;;;;;;;;;;5052475;28;19917;-81
2022/07/29 03:48:39;;;;;;;;;;;;;;;;;;5052698;28;20283;-81
2022/07/29 03:51:05;;;;;;;;;;;;;;;;;;5052813;28;20359;-81
2022/07/29 03:53:32;;;;;;;;;;;;;;;;;;5052526;28;19917;-82
2022/07/29 03:55:58;;;;;;;;;;;;;;;;;;5052391;28;19927;-81
2022/07/29 03:58:23;;;;;;;;;;;;;;;;;;5052722;28;20012;-81
2022/07/29 04:00:48;;;;;;;;;;;;;;;;;;5052344;28;19960;-81
2022/07/29 04:03:14;;;;;;;;;;;;;;;;;;5052302;28;19918;-81
2022/07/29 04:05:39;;;;;;;;;;;;;;;;;;5052240;28;19923;-81
2022/07/29 04:08:05;;;;;;;;;;;;;;;;;;5035501;28;20398;-81
2022/07/29 04:10:30;;;;;;;;;;;;;;;;;;5052099;28;19917;-81
2022/07/29 04:12:55;;;;;;;;;;;;;;;;;;5052001;28;20019;-81
2022/07/29 04:15:21;;;;;;;;;;;;;;;;;;5053652;28;19923;-81
2022/07/29 04:17:46;;;;;;;;;;;;;;;;;;5052582;28;19912;-81
2022/07/29 04:20:13;;;;;;;;;;;;;;;;;;5053389;28;19916;-81
2022/07/29 04:22:38;;;;;;;;;;;;;;;;;;5052179;28;19913;-81
2022/07/29 04:25:04;;;;;;;;;;;;;;;;;;5054802;28;19927;-81
2022/07/29 04:27:29;;;;;;;;;;;;;;;;;;5055670;28;19929;-81
2022/07/29 04:29:54;;;;;;;;;;;;;;;;;;5057597;28;19944;-81
2022/07/29 04:32:19;;;;;;;;;;;;;;;;;;5056147;28;19913;-81
2022/07/29 04:34:46;;;;;;;;;;;;;;;;;;5056409;28;19920;-81
2022/07/29 04:37:11;;;;;;;;;;;;;;;;;;5057323;28;19916;-82
2022/07/29 04:39:37;;;;;;;;;;;;;;;;;;5057243;28;19921;-82
2022/07/29 04:42:02;;;;;;;;;;;;;;;;;;5057016;28;19916;-81
2022/07/29 04:44:28;;;;;;;;;;;;;;;;;;5057155;28;19964;-81
2022/07/29 04:46:53;;;;;;;;;;;;;;;;;;5056865;28;19968;-80
2022/07/29 04:49:18;;;;;;;;;;;;;;;;;;5056749;28;19928;-80
2022/07/29 04:51:44;;;;;;;;;;;;;;;;;;5056959;28;20015;-79
2022/07/29 04:54:09;;;;;;;;;;;;;;;;;;5055765;28;19921;-81
2022/07/29 04:56:34;;;;;;;;;;;;;;;;;;5056638;28;19923;-80
2022/07/29 04:58:59;;;;;;;;;;;;;;;;;;5056889;28;19962;-79
2022/07/29 05:01:25;;;;;;;;;;;;;;;;;;5055238;28;19963;-80
2022/07/29 05:03:50;;;;;;;;;;;;;;;;;;5055222;28;20390;-79
2022/07/29 05:06:15;;;;;;;;;;;;;;;;;;5056993;28;19939;-79
2022/07/29 05:08:41;;;;;;;;;;;;;;;;;;5056426;28;19913;-80
2022/07/29 05:11:06;;;;;;;;;;;;;;;;;;5055175;28;19917;-79
2022/07/29 05:13:31;;;;;;;;;;;;;;;;;;5056555;28;19917;-79
2022/07/29 05:15:58;;;;;;;;;;;;;;;;;;5056742;28;19943;-80
2022/07/29 05:18:23;;;;;;;;;;;;;;;;;;5038507;28;19913;-79
2022/07/29 05:20:49;;;;;;;;;;;;;;;;;;5056182;28;20368;-79
2022/07/29 05:23:14;;;;;;;;;;;;;;;;;;5056050;28;19916;-80
2022/07/29 05:25:39;;;;;;;;;;;;;;;;;;5055372;28;20352;-79
2022/07/29 05:28:04;;;;;;;;;;;;;;;;;;5056232;28;19925;-79
2022/07/29 05:30:30;;;;;;;;;;;;;;;;;;5056231;28;19921;-79
2022/07/29 05:32:55;;;;;;;;;;;;;;;;;;5055555;28;19917;-80
2022/07/29 05:35:20;;;;;;;;;;;;;;;;;;5054710;28;19913;-80
2022/07/29 05:37:45;;;;;;;;;;;;;;;;;;5054642;28;19917;-79
2022/07/29 05:40:11;;;;;;;;;;;;;;;;;;5037896;28;19913;-80
2022/07/29 05:42:36;;;;;;;;;;;;;;;;;;5056211;28;19925;-80
2022/07/29 05:45:02;;;;;;;;;;;;;;;;;;5054548;28;20007;-80
2022/07/29 05:47:27;;;;;;;;;;;;;;;;;;5054803;28;20363;-81
2022/07/29 05:49:52;;;;;;;;;;;;;;;;;;5054223;28;19928;-80
2022/07/29 05:52:17;;;;;;;;;;;;;;;;;;5054292;28;19917;-80
2022/07/29 05:54:43;;;;;;;;;;;;;;;;;;5054436;28;20286;-80
2022/07/29 05:57:08;;;;;;;;;;;;;;;;;;5037527;28;19920;-80
2022/07/29 05:59:37;;;;;;;;;;;;;;;;;;5054146;28;19917;-80
2022/07/29 06:02:04;;;;;;;;;;;;;;;;;;5054804;28;20395;-81
2022/07/29 06:04:30;;;;;;;;;;;;;;;;;;5054160;28;19947;-82
2022/07/29 06:06:56;;;;;;;;;;;;;;;;;;5054018;28;19913;-81
2022/07/29 06:09:22;;;;;;;;;;;;;;;;;;5055506;28;19917;-81
2022/07/29 06:11:47;;;;;;;;;;;;;;;;;;5037394;28;19924;-81
2022/07/29 06:14:13;;;;;;;;;;;;;;;;;;5053968;28;19913;-81
2022/07/29 06:16:38;;;;;;;;;;;;;;;;;;5055566;28;20357;-80
2022/07/29 06:19:04;;;;;;;;;;;;;;;;;;5055330;28;19967;-81
2022/07/29 06:21:29;;;;;;;;;;;;;;;;;;5055400;28;19960;-81
2022/07/29 06:23:54;;;;;;;;;;;;;;;;;;5036949;28;20303;-82
2022/07/29 06:26:20;;;;;;;;;;;;;;;;;;5054136;28;20356;-81
2022/07/29 06:28:45;;;;;;;;;;;;;;;;;;5053475;28;19947;-82
2022/07/29 06:31:10;;;;;;;;;;;;;;;;;;5053782;28;20286;-81
2022/07/29 06:33:35;;;;;;;;;;;;;;;;;;5055332;28;19917;-81
2022/07/29 06:36:03;;;;;;;;;;;;;;;;;;5053384;28;20348;-81
2022/07/29 06:38:28;;;;;;;;;;;;;;;;;;5036882;28;20295;-81
2022/07/29 06:40:59;;;;;;;;;;;;;;;;;;5053591;28;19916;-81
2022/07/29 06:43:25;;;;;;;;;;;;;;;;;;5053427;28;20003;-81
2022/07/29 06:45:50;;;;;;;;;;;;;;;;;;5036863;28;19990;-81
2022/07/29 06:48:15;;;;;;;;;;;;;;;;;;5052963;28;19923;-81
2022/07/29 06:50:41;;;;;;;;;;;;;;;;;;5055102;28;20012;-79
2022/07/29 06:53:06;;;;;;;;;;;;;;;;;;5054956;28;19927;-80
2022/07/29 06:55:31;;;;;;;;;;;;;;;;;;5054033;28;19924;-79
2022/07/29 06:57:56;;;;;;;;;;;;;;;;;;5053499;28;19923;-81
2022/07/29 07:00:22;;;;;;;;;;;;;;;;;;5053178;28;20356;-79
2022/07/29 07:02:47;;;;;;;;;;;;;;;;;;5054653;28;19956;-80
2022/07/29 07:05:12;;;;;;;;;;;;;;;;;;5058414;28;20031;-80
2022/07/29 07:07:38;;;;;;;;;;;;;;;;;;5057167;28;19916;-78
2022/07/29 07:10:03;;;;;;;;;;;;;;;;;;5058427;28;19924;-80
2022/07/29 07:12:28;;;;;;;;;;;;;;;;;;5064487;28;20434;-81
2022/07/29 07:14:54;;;;;;;;;;;;;;;;;;5063785;28;19917;-79
2022/07/29 07:17:19;;;;;;;;;;;;;;;;;;5061509;28;19988;-81
2022/07/29 07:19:45;;;;;;;;;;;;;;;;;;5065856;28;19973;-81
2022/07/29 07:22:10;;;;;;;;;;;;;;;;;;5063378;28;19917;-81
2022/07/29 07:24:35;;;;;;;;;;;;;;;;;;5062757;28;19925;-81
2022/07/29 07:27:00;;;;;;;;;;;;;;;;;;5063586;28;19923;-82
2022/07/29 07:29:26;;;;;;;;;;;;;;;;;;5056354;28;19921;-82
2022/07/29 07:31:52;;;;;;;;;;;;;;;;;;5053502;28;20256;-82
2022/07/29 07:34:17;;;;;;;;;;;;;;;;;;5054122;28;19920;-82
2022/07/29 07:36:43;;;;;;;;;;;;;;;;;;5053999;28;20375;-81
2022/07/29 07:39:08;;;;;;;;;;;;;;;;;;5052626;28;19935;-81
2022/07/29 07:41:33;;;;;;;;;;;;;;;;;;5052844;28;19940;-82
2022/07/29 07:43:59;;;;;;;;;;;;;;;;;;5054384;28;20295;-80
2022/07/29 07:46:24;;;;;;;;;;;;;;;;;;5052761;28;19963;-81
2022/07/29 07:48:49;;;;;;;;;;;;;;;;;;5053300;28;20371;-80
2022/07/29 07:51:14;;;;;;;;;;;;;;;;;;5053172;28;19962;-80
2022/07/29 07:53:40;;;;;;;;;;;;;;;;;;5052887;28;20366;-82
2022/07/29 07:56:06;;;;;;;;;;;;;;;;;;5053436;28;19921;-81
2022/07/29 07:58:31;;;;;;;;;;;;;;;;;;5052855;28;19943;-81
2022/07/29 08:00:56;;;;;;;;;;;;;;;;;;5056403;28;20445;-80
2022/07/29 08:03:22;;;;;;;;;;;;;;;;;;5056651;28;20425;-80
2022/07/29 08:05:48;;;;;;;;;;;;;;;;;;5056552;28;19928;-82
2022/07/29 08:08:13;;;;;;;;;;;;;;;;;;5056785;28;19917;-81
2022/07/29 08:10:55;;;;;;;;;;;;;;;;;;5056395;28;19924;-80
2022/07/29 08:13:20;;;;;;;;;;;;;;;;;;5056406;28;19923;-80
2022/07/29 08:15:46;;;;;;;;;;;;;;;;;;5056662;28;19917;-80
2022/07/29 08:18:12;;;;;;;;;;;;;;;;;;5058604;28;20371;-79
2022/07/29 08:20:38;;;;;;;;;;;;;;;;;;5043796;28;19917;-80
2022/07/29 08:23:04;;;;;;;;;;;;;;;;;;5063043;28;19924;-80
2022/07/29 08:25:29;;;;;;;;;;;;;;;;;;5060875;28;19916;-80
2022/07/29 08:27:55;;;;;;;;;;;;;;;;;;5061579;28;19925;-80
2022/07/29 08:30:20;;;;;;;;;;;;;;;;;;5056768;28;19921;-80
2022/07/29 08:32:47;;;;;;;;;;;;;;;;;;5056341;28;19917;-82
2022/07/29 08:35:12;;;;;;;;;;;;;;;;;;5056446;28;19913;-82
2022/07/29 08:37:37;;;;;;;;;;;;;;;;;;5064173;28;19982;-84
2022/07/29 08:40:03;;;;;;;;;;;;;;;;;;5059568;28;19928;-88
2022/07/29 08:42:29;;;;;;;;;;;;;;;;;;5055867;28;20000;-84
2022/07/29 08:44:54;;;;;;;;;;;;;;;;;;5055801;28;20382;-84
2022/07/29 08:47:19;;;;;;;;;;;;;;;;;;5055681;28;20007;-82
2022/07/29 08:49:46;;;;;;;;;;;;;;;;;;5057072;28;19964;-83
2022/07/29 08:52:12;;;;;;;;;;;;;;;;;;5039042;28;19912;-87
2022/07/29 08:54:38;;;;;;;;;;;;;;;;;;5039038;28;19925;-86
2022/07/29 08:57:04;;;;;;;;;;;;;;;;;;5055235;28;19913;-79
2022/07/29 08:59:29;;;;;;;;;;;;;;;;;;5055364;28;19943;-80
2022/07/29 09:01:54;;;;;;;;;;;;;;;;;;5055329;28;20328;-80
2022/07/29 09:04:20;;;;;;;;;;;;;;;;;;5039187;28;19978;-84
2022/07/29 09:06:47;;;;;;;;;;;;;;;;;;5057083;28;19917;-81
2022/07/29 09:09:13;;;;;;;;;;;;;;;;;;5055620;28;20008;-79
2022/07/29 09:11:39;;;;;;;;;;;;;;;;;;5055852;28;20414;-81
2022/07/29 09:14:04;;;;;;;;;;;;;;;;;;5038776;28;19959;-80
2022/07/29 09:16:44;;;;;;;;;;;;;;;;;;5056092;28;20335;-81
2022/07/29 09:19:23;;;;;;;;;;;;;;;;;;5055597;28;19913;-81
2022/07/29 09:21:57;;;;;;;;;;;;;;;;;;5056127;28;19912;-82
2022/07/29 09:24:22;;;;;;;;;;;;;;;;;;5055572;28;19920;-81
2022/07/29 09:26:48;;;;;;;;;;;;;;;;;;5055715;28;20020;-82
2022/07/29 09:29:14;;;;;;;;;;;;;;;;;;5055302;28;19925;-82
2022/07/29 09:31:40;;;;;;;;;;;;;;;;;;5038516;28;19913;-82
2022/07/29 09:34:06;;;;;;;;;;;;;;;;;;5055077;28;20290;-83
2022/07/29 09:36:35;;;;;;;;;;;;;;;;;;5038644;28;19919;-84
2022/07/29 09:39:01;;;;;;;;;;;;;;;;;;5039536;28;20382;-83
2022/07/29 09:41:27;;;;;;;;;;;;;;;;;;5057098;28;19917;-82
2022/07/29 09:43:55;;;;;;;;;;;;;;;;;;5055531;28;20341;-81
2022/07/29 09:46:20;;;;;;;;;;;;;;;;;;5057025;28;19992;-81
2022/07/29 09:48:46;;;;;;;;;;;;;;;;;;5056749;28;19952;-81
2022/07/29 09:51:18;;;;;;;;;;;;;;;;;;5055528;28;20338;-83
2022/07/29 09:53:43;;;;;;;;;;;;;;;;;;5056068;28;19916;-80
2022/07/29 09:56:10;;;;;;;;;;;;;;;;;;5056706;28;19943;-83
2022/07/29 09:58:35;;;;;;;;;;;;;;;;;;5056492;28;19916;-81
2022/07/29 10:01:01;;;;;;;;;;;;;;;;;;5057415;28;19917;-82
2022/07/29 10:03:26;;;;;;;;;;;;;;;;;;5039202;28;20003;-81
2022/07/29 10:06:08;;;;;;;;;;;;;;;;;;5055283;28;20005;-81
2022/07/29 10:08:33;;;;;;;;;;;;;;;;;;5055766;28;20338;-81
2022/07/29 10:11:12;;;;;;;;;;;;;;;;;;5054171;28;19924;-81
2022/07/29 10:13:37;;;;;;;;;;;;;;;;;;5054196;28;19923;-82
2022/07/29 10:16:03;;;;;;;;;;;;;;;;;;5054756;28;19916;-83
2022/07/29 10:18:28;;;;;;;;;;;;;;;;;;5054788;28;20326;-81
2022/07/29 10:20:53;;;;;;;;;;;;;;;;;;5055016;28;19917;-79
2022/07/29 10:23:19;;;;;;;;;;;;;;;;;;5055227;28;19917;-81
2022/07/29 10:25:45;;;;;;;;;;;;;;;;;;5055340;28;20274;-81
2022/07/29 10:28:10;;;;;;;;;;;;;;;;;;5053753;28;20494;-80
2022/07/29 10:30:35;;;;;;;;;;;;;;;;;;5058133;28;19935;-81
2022/07/29 10:33:14;;;;;;;;;;;;;;;;;;5055808;28;19923;-83
2022/07/29 10:35:45;;;;;;;;;;;;;;;;;;5057098;28;19913;-84
2022/07/29 10:38:20;;;;;;;;;;;;;;;;;;5058588;28;19920;-84
2022/07/29 10:43:29;;;;;;;;;;;;;;;;;;5056210;28;19920;-84
2022/07/29 10:45:56;;;;;;;;;;;;;;;;;;5040598;28;19913;-84
2022/07/29 10:48:22;;;;;;;;;;;;;;;;;;5038218;28;20368;-83
2022/07/29 10:51:00;;;;;;;;;;;;;;;;;;5039883;28;19920;-82
2022/07/29 10:53:44;;;;;;;;;;;;;;;;;;5039078;28;19913;-83
2022/07/29 10:56:22;;;;;;;;;;;;;;;;;;5057043;28;19913;-85
2022/07/29 10:58:59;;;;;;;;;;;;;;;;;;5038964;28;20004;-85
2022/07/29 11:01:28;;;;;;;;;;;;;;;;;;5056705;28;19939;-86
2022/07/29 11:03:55;;;;;;;;;;;;;;;;;;5036890;28;19913;-81
2022/07/29 11:06:20;;;;;;;;;;;;;;;;;;5054827;28;19966;-79
2022/07/29 11:08:46;;;;;;;;;;;;;;;;;;5053131;28;19921;-78
2022/07/29 11:11:20;;;;;;;;;;;;;;;;;;5036450;28;19963;-78
2022/07/29 11:13:47;;;;;;;;;;;;;;;;;;5053048;28;19917;-78
2022/07/29 11:16:12;;;;;;;;;;;;;;;;;;5054235;28;19913;-79
2022/07/29 11:18:56;;;;;;;;;;;;;;;;;;5055869;28;19917;-81
2022/07/29 11:21:38;;;;;;;;;;;;;;;;;;5054695;28;20422;-80
2022/07/29 11:24:12;;;;;;;;;;;;;;;;;;5054917;28;20341;-81
2022/07/29 11:26:38;;;;;;;;;;;;;;;;;;5055070;28;20387;-81
2022/07/29 11:29:05;;;;;;;;;;;;;;;;;;5054162;28;19932;-81
2022/07/29 11:31:45;;;;;;;;;;;;;;;;;;5053359;28;19913;-81
2022/07/29 11:34:18;;;;;;;;;;;;;;;;;;5036552;28;19919;-82
2022/07/29 11:37:07;;;;;;;;;;;;;;;;;;5053280;28;20295;-82
2022/07/29 11:39:36;;;;;;;;;;;;;;;;;;5048549;28;19916;-82
2022/07/29 11:42:16;;;;;;;;;;;;;;;;;;5053823;28;19913;-82
2022/07/29 11:45:01;;;;;;;;;;;;;;;;;;5054165;28;19936;-81
2022/07/29 11:47:28;;;;;;;;;;;;;;;;;;5053856;28;20003;-81
2022/07/29 11:49:54;;;;;;;;;;;;;;;;;;5053074;28;19927;-81
2022/07/29 11:52:19;;;;;;;;;;;;;;;;;;5054647;28;20394;-81
2022/07/29 11:54:45;;;;;;;;;;;;;;;;;;5053581;28;19943;-81
2022/07/29 11:57:10;;;;;;;;;;;;;;;;;;5054970;28;19970;-81
2022/07/29 11:59:39;;;;;;;;;;;;;;;;;;5055748;28;19912;-81
2022/07/29 12:02:06;;;;;;;;;;;;;;;;;;5038029;28;19952;-82
2022/07/29 12:04:31;;;;;;;;;;;;;;;;;;5055217;28;20299;-81
2022/07/29 12:06:57;;;;;;;;;;;;;;;;;;5043782;28;19924;-81
2022/07/29 12:09:22;;;;;;;;;;;;;;;;;;5060362;28;20398;-81
2022/07/29 12:11:48;;;;;;;;;;;;;;;;;;5060062;28;19966;-82
2022/07/29 12:14:25;;;;;;;;;;;;;;;;;;5046976;28;19919;-80
2022/07/29 12:16:51;;;;;;;;;;;;;;;;;;5059990;28;20325;-80
2022/07/29 12:19:16;;;;;;;;;;;;;;;;;;5059888;28;19947;-82
2022/07/29 12:21:45;;;;;;;;;;;;;;;;;;5059311;28;19916;-82
2022/07/29 12:24:11;;;;;;;;;;;;;;;;;;5055453;28;20011;-81
2022/07/29 12:26:36;;;;;;;;;;;;;;;;;;5059432;28;19975;-83
2022/07/29 12:29:02;;;;;;;;;;;;;;;;;;5058126;28;19925;-81
2022/07/29 12:31:27;;;;;;;;;;;;;;;;;;5038409;28;19982;-81
2022/07/29 12:33:55;;;;;;;;;;;;;;;;;;5057591;28;20011;-79
2022/07/29 12:36:20;;;;;;;;;;;;;;;;;;5041061;28;19913;-79
2022/07/29 12:38:45;;;;;;;;;;;;;;;;;;5058533;28;20421;-78
2022/07/29 12:41:11;;;;;;;;;;;;;;;;;;5054718;28;20016;-78
2022/07/29 12:43:36;;;;;;;;;;;;;;;;;;5056201;28;20015;-78
2022/07/29 12:46:15;;;;;;;;;;;;;;;;;;5054544;28;19976;-77
2022/07/29 12:48:42;;;;;;;;;;;;;;;;;;5059708;28;19935;-78
2022/07/29 12:51:08;;;;;;;;;;;;;;;;;;5059828;28;20295;-78
2022/07/29 12:53:33;;;;;;;;;;;;;;;;;;5054896;28;20375;-77
2022/07/29 12:56:02;;;;;;;;;;;;;;;;;;5055116;28;19913;-78
2022/07/29 12:58:30;;;;;;;;;;;;;;;;;;5056755;28;19928;-78
2022/07/29 13:01:02;;;;;;;;;;;;;;;;;;5057259;28;19912;-77
2022/07/29 13:03:28;;;;;;;;;;;;;;;;;;5055206;28;19994;-78
2022/07/29 13:05:53;;;;;;;;;;;;;;;;;;5052423;28;19948;-78
2022/07/29 13:08:19;;;;;;;;;;;;;;;;;;5055518;28;19924;-77
2022/07/29 13:10:45;;;;;;;;;;;;;;;;;;5040146;28;19986;-77
2022/07/29 13:13:12;;;;;;;;;;;;;;;;;;5056497;28;19913;-77
2022/07/29 13:15:38;;;;;;;;;;;;;;;;;;5055537;28;20291;-77
2022/07/29 13:18:05;;;;;;;;;;;;;;;;;;5055603;28;19913;-78
2022/07/29 13:20:31;;;;;;;;;;;;;;;;;;5038834;28;19920;-78
2022/07/29 13:22:59;;;;;;;;;;;;;;;;;;5054800;28;19913;-77
2022/07/29 13:25:26;;;;;;;;;;;;;;;;;;5038448;28;19921;-78
2022/07/29 13:27:51;;;;;;;;;;;;;;;;;;5037881;28;19921;-77
2022/07/29 13:30:16;;;;;;;;;;;;;;;;;;5054515;28;20050;-77
2022/07/29 13:32:42;;;;;;;;;;;;;;;;;;5053839;28;19917;-77
2022/07/29 13:35:07;;;;;;;;;;;;;;;;;;5054331;28;20304;-76
2022/07/29 13:37:34;;;;;;;;;;;;;;;;;;5037486;28;19916;-76
2022/07/29 13:40:00;;;;;;;;;;;;;;;;;;5054164;28;19927;-76
2022/07/29 13:42:26;;;;;;;;;;;;;;;;;;5037143;28;20287;-76
2022/07/29 13:44:52;;;;;;;;;;;;;;;;;;5036954;28;19913;-76
2022/07/29 13:47:18;;;;;;;;;;;;;;;;;;5055362;28;20008;-76
2022/07/29 13:49:43;;;;;;;;;;;;;;;;;;5053631;28;19924;-76
2022/07/29 13:52:08;;;;;;;;;;;;;;;;;;5053891;28;19956;-77
2022/07/29 13:54:37;;;;;;;;;;;;;;;;;;5053467;28;20130;-76
2022/07/29 13:57:05;;;;;;;;;;;;;;;;;;5053092;28;20398;-76
2022/07/29 13:59:30;;;;;;;;;;;;;;;;;;5053297;28;19916;-77
2022/07/29 14:01:56;;;;;;;;;;;;;;;;;;5053614;28;20004;-76
2022/07/29 14:04:23;;;;;;;;;;;;;;;;;;5052858;28;19921;-77
2022/07/29 14:06:49;;;;;;;;;;;;;;;;;;5037065;28;20402;-76
2022/07/29 14:09:15;;;;;;;;;;;;;;;;;;5036964;28;19962;-76
2022/07/29 14:11:40;;;;;;;;;;;;;;;;;;5053937;28;19936;-76
2022/07/29 14:14:06;;;;;;;;;;;;;;;;;;5054790;28;20295;-77
2022/07/29 14:16:31;;;;;;;;;;;;;;;;;;5054535;28;20279;-77
2022/07/29 14:18:56;;;;;;;;;;;;;;;;;;5055241;28;20403;-76
2022/07/29 14:21:22;;;;;;;;;;;;;;;;;;5053327;28;19917;-76
2022/07/29 14:23:47;;;;;;;;;;;;;;;;;;5053784;28;19920;-76
2022/07/29 14:26:12;;;;;;;;;;;;;;;;;;5054383;28;20023;-76
2022/07/29 14:28:38;;;;;;;;;;;;;;;;;;5053186;28;19995;-76
2022/07/29 14:31:03;;;;;;;;;;;;;;;;;;5054478;28;19921;-77
2022/07/29 14:33:28;;;;;;;;;;;;;;;;;;5036306;28;19917;-76
2022/07/29 14:35:54;;;;;;;;;;;;;;;;;;5053256;28;19912;-77
2022/07/29 14:38:19;;;;;;;;;;;;;;;;;;5055447;28;20339;-76
2022/07/29 14:40:46;;;;;;;;;;;;;;;;;;5037433;28;19917;-77
2022/07/29 14:43:11;;;;;;;;;;;;;;;;;;5053672;28;19917;-76
2022/07/29 14:45:36;;;;;;;;;;;;;;;;;;5036989;28;20330;-76
2022/07/29 14:48:27;;;;;;;;;;;;;;;;;;5054839;28;19916;-77
2022/07/29 14:50:54;;;;;;;;;;;;;;;;;;5053369;28;20043;-76
2022/07/29 14:53:20;;;;;;;;;;;;;;;;;;5053347;28;19913;-77
2022/07/29 14:55:45;;;;;;;;;;;;;;;;;;5036671;28;19931;-77
2022/07/29 14:58:11;;;;;;;;;;;;;;;;;;5036585;28;20011;-77
2022/07/29 15:00:37;;;;;;;;;;;;;;;;;;5053220;28;19917;-77
2022/07/29 15:03:02;;;;;;;;;;;;;;;;;;5054746;28;19964;-77
2022/07/29 15:05:28;;;;;;;;;;;;;;;;;;5053488;28;19912;-77
2022/07/29 15:07:53;;;;;;;;;;;;;;;;;;5054430;28;20007;-77
2022/07/29 15:10:19;;;;;;;;;;;;;;;;;;5054234;28;19920;-76
2022/07/29 15:12:44;;;;;;;;;;;;;;;;;;5054630;28;19923;-78
2022/07/29 15:15:09;;;;;;;;;;;;;;;;;;5052979;28;19916;-78
2022/07/29 15:17:35;;;;;;;;;;;;;;;;;;5054519;28;20390;-79
2022/07/29 15:20:00;;;;;;;;;;;;;;;;;;5054578;28;20315;-79
2022/07/29 15:22:25;;;;;;;;;;;;;;;;;;5049462;28;20387;-78
2022/07/29 15:24:51;;;;;;;;;;;;;;;;;;5032877;28;19921;-78
2022/07/29 15:27:16;;;;;;;;;;;;;;;;;;5016165;28;20003;-79
2022/07/29 15:29:45;;;;;;;;;;;;;;;;;;5032784;28;19917;-78
2022/07/29 15:32:10;;;;;;;;;;;;;;;;;;5032945;28;19913;-80
2022/07/29 15:34:36;;;;;;;;;;;;;;;;;;5016374;28;19920;-82
2022/07/29 15:37:01;;;;;;;;;;;;;;;;;;5017169;28;20322;-82
2022/07/29 15:39:26;;;;;;;;;;;;;;;;;;5033775;28;20031;-82
2022/07/29 15:41:52;;;;;;;;;;;;;;;;;;5034296;28;20012;-81
2022/07/29 15:44:18;;;;;;;;;;;;;;;;;;5016379;28;20292;-81
2022/07/29 15:49:30;;;;;;;;;;;;;;;;;;5033890;28;19928;-81
2022/07/29 15:51:56;;;;;;;;;;;;;;;;;;5016681;28;20288;-80
2022/07/29 15:54:22;;;;;;;;;;;;;;;;;;5032736;28;20265;-81
2022/07/29 15:56:47;;;;;;;;;;;;;;;;;;5016202;28;19995;-81
2022/07/29 15:59:12;;;;;;;;;;;;;;;;;;5033065;28;19917;-80
2022/07/29 16:01:37;;;;;;;;;;;;;;;;;;5032933;28;20252;-80
2022/07/29 16:04:03;;;;;;;;;;;;;;;;;;5034191;28;19917;-81
2022/07/29 16:06:28;;;;;;;;;;;;;;;;;;5034138;28;19949;-81
2022/07/29 16:08:54;;;;;;;;;;;;;;;;;;5032553;28;19917;-81
2022/07/29 16:11:20;;;;;;;;;;;;;;;;;;5033187;28;20298;-82
2022/07/29 16:13:45;;;;;;;;;;;;;;;;;;5032825;28;19921;-81
2022/07/29 16:16:10;;;;;;;;;;;;;;;;;;5034507;28;19918;-80
2022/07/29 16:18:36;;;;;;;;;;;;;;;;;;5034404;28;19971;-81
2022/07/29 16:21:01;;;;;;;;;;;;;;;;;;5053548;28;19921;-80
2022/07/29 16:23:26;;;;;;;;;;;;;;;;;;5056717;28;20313;-81
2022/07/29 16:25:52;;;;;;;;;;;;;;;;;;5058826;28;20351;-81
2022/07/29 16:28:17;;;;;;;;;;;;;;;;;;5056568;28;19932;-81
2022/07/29 16:30:44;;;;;;;;;;;;;;;;;;5055966;28;21268;-81
2022/07/29 16:33:10;;;;;;;;;;;;;;;;;;5058079;28;19916;-80
2022/07/29 16:35:39;;;;;;;;;;;;;;;;;;5058247;28;19917;-80
2022/07/29 16:38:04;;;;;;;;;;;;;;;;;;5056521;28;19959;-81
2022/07/29 16:40:29;;;;;;;;;;;;;;;;;;5058063;28;19913;-81
2022/07/29 16:42:55;;;;;;;;;;;;;;;;;;5056448;28;20393;-81
2022/07/29 16:45:20;;;;;;;;;;;;;;;;;;5056045;28;20286;-80
2022/07/29 16:47:45;;;;;;;;;;;;;;;;;;5055734;28;19921;-81